createdAt,value
2019-05-15T00:00:55.711Z,93.60
2019-05-15T00:01:58.454Z,93.75
2019-05-15T00:02:55.543Z,93.37
2019-05-15T00:03:55.452Z,92.99
2019-05-15T00:04:55.421Z,93.75
2019-05-15T00:05:55.276Z,92.99
2019-05-15T00:06:55.212Z,92.70
2019-05-15T00:07:55.130Z,93.37
2019-05-15T00:08:55.028Z,92.89
2019-05-15T00:09:55.042Z,92.99
2019-05-15T00:10:54.859Z,93.08
2019-05-15T00:11:54.886Z,92.32
2019-05-15T00:12:54.688Z,92.22
2019-05-15T00:13:54.604Z,92.41
2019-05-15T00:14:54.537Z,92.41
2019-05-15T00:15:54.466Z,92.61
2019-05-15T00:16:54.357Z,92.41
2019-05-15T00:17:54.381Z,92.41
2019-05-15T00:18:54.188Z,92.41
2019-05-15T00:19:54.100Z,92.51
2019-05-15T00:20:54.096Z,92.03
2019-05-15T00:21:53.955Z,92.13
2019-05-15T00:22:53.904Z,92.13
2019-05-15T00:23:53.760Z,92.32
2019-05-15T00:25:00.678Z,92.41
2019-05-15T00:25:53.586Z,92.13
2019-05-15T00:26:53.527Z,92.03
2019-05-15T00:27:53.433Z,92.32
2019-05-15T00:28:53.433Z,91.94
2019-05-15T00:29:53.252Z,92.61
2019-05-15T00:30:55.190Z,92.27
2019-05-15T00:31:53.077Z,92.41
2019-05-15T00:32:53.083Z,92.41
2019-05-15T00:33:52.928Z,92.51
2019-05-15T00:34:52.827Z,92.41
2019-05-15T00:35:52.766Z,92.61
2019-05-15T00:36:52.655Z,92.51
2019-05-15T00:37:52.585Z,92.41
2019-05-15T00:38:52.582Z,91.99
2019-05-15T00:39:52.412Z,91.94
2019-05-15T00:40:52.328Z,91.94
2019-05-15T00:41:54.857Z,91.85
2019-05-15T00:42:52.163Z,91.66
2019-05-15T00:43:52.070Z,91.66
2019-05-15T00:44:52.009Z,91.56
2019-05-15T00:45:51.902Z,91.56
2019-05-15T00:46:51.924Z,91.75
2019-05-15T00:47:51.749Z,91.37
2019-05-15T00:48:52.755Z,91.28
2019-05-15T00:49:51.559Z,91.75
2019-05-15T00:50:51.538Z,91.37
2019-05-15T00:51:51.382Z,91.37
2019-05-15T00:52:51.380Z,91.56
2019-05-15T00:53:51.222Z,91.56
2019-05-15T00:54:51.134Z,91.75
2019-05-15T00:55:51.163Z,91.75
2019-05-15T00:56:50.964Z,91.94
2019-05-15T00:57:50.897Z,91.56
2019-05-15T00:58:50.879Z,91.94
2019-05-15T00:59:50.707Z,91.80
2019-05-15T01:00:50.626Z,91.94
2019-05-15T01:01:50.540Z,91.56
2019-05-15T01:02:50.534Z,91.94
2019-05-15T01:03:50.370Z,91.56
2019-05-15T01:04:50.289Z,91.75
2019-05-15T01:05:50.200Z,91.18
2019-05-15T01:06:52.744Z,91.47
2019-05-15T01:07:50.042Z,91.56
2019-05-15T01:08:49.952Z,91.56
2019-05-15T01:09:49.929Z,91.08
2019-05-15T01:10:49.785Z,90.61
2019-05-15T01:11:49.691Z,90.80
2019-05-15T01:12:49.679Z,90.99
2019-05-15T01:13:49.521Z,90.80
2019-05-15T01:14:49.441Z,90.61
2019-05-15T01:15:49.458Z,90.52
2019-05-15T01:16:49.274Z,90.80
2019-05-15T01:17:50.224Z,90.89
2019-05-15T01:18:49.270Z,91.18
2019-05-15T01:19:49.077Z,90.52
2019-05-15T01:20:49.445Z,90.70
2019-05-15T01:21:48.888Z,90.80
2019-05-15T01:22:48.772Z,90.99
2019-05-15T01:23:48.676Z,90.99
2019-05-15T01:24:48.724Z,90.89
2019-05-15T01:25:48.510Z,90.70
2019-05-15T01:26:49.254Z,90.52
2019-05-15T01:27:48.972Z,90.99
2019-05-15T01:28:49.494Z,91.56
2019-05-15T01:29:49.388Z,90.89
2019-05-15T01:30:48.589Z,91.80
2019-05-15T01:31:48.821Z,91.23
2019-05-15T01:32:48.535Z,91.52
2019-05-15T01:33:48.154Z,91.42
2019-05-15T01:34:49.073Z,90.61
2019-05-15T01:35:48.923Z,90.66
2019-05-15T01:36:48.876Z,90.89
2019-05-15T01:37:48.325Z,91.52
2019-05-15T01:38:48.038Z,90.94
2019-05-15T01:39:48.531Z,90.75
2019-05-15T01:40:48.494Z,91.33
2019-05-15T01:41:49.361Z,91.23
2019-05-15T01:42:47.081Z,91.99
2019-05-15T01:43:48.965Z,92.27
2019-05-15T01:44:48.466Z,91.89
2019-05-15T01:45:48.363Z,91.99
2019-05-15T01:46:48.426Z,92.18
2019-05-15T01:47:47.988Z,92.46
2019-05-15T01:48:49.119Z,92.37
2019-05-15T01:49:48.865Z,92.37
2019-05-15T01:50:46.403Z,92.37
2019-05-15T01:51:47.941Z,92.46
2019-05-15T01:52:47.949Z,92.27
2019-05-15T01:53:48.083Z,92.18
2019-05-15T01:54:46.056Z,92.66
2019-05-15T01:55:48.185Z,93.04
2019-05-15T01:56:45.873Z,93.13
2019-05-15T01:57:45.897Z,92.94
2019-05-15T01:58:45.716Z,92.94
2019-05-15T01:59:56.535Z,92.85
2019-05-15T02:00:45.540Z,93.23
2019-05-15T02:01:45.490Z,92.94
2019-05-15T02:02:45.380Z,92.75
2019-05-15T02:03:45.391Z,93.13
2019-05-15T02:04:45.206Z,93.04
2019-05-15T02:05:45.114Z,93.32
2019-05-15T02:06:45.099Z,93.51
2019-05-15T02:07:44.955Z,93.79
2019-05-15T02:08:44.859Z,93.70
2019-05-15T02:09:44.814Z,93.32
2019-05-15T02:10:44.696Z,93.79
2019-05-15T02:11:44.623Z,93.51
2019-05-15T02:12:44.534Z,93.70
2019-05-15T02:13:44.535Z,93.41
2019-05-15T02:14:44.350Z,93.79
2019-05-15T02:15:44.263Z,93.70
2019-05-15T02:16:48.201Z,94.27
2019-05-15T02:17:44.110Z,94.08
2019-05-15T02:18:44.009Z,94.13
2019-05-15T02:19:43.962Z,93.89
2019-05-15T02:20:43.843Z,94.03
2019-05-15T02:21:43.756Z,93.79
2019-05-15T02:22:43.714Z,93.79
2019-05-15T02:23:43.589Z,93.84
2019-05-15T02:24:43.503Z,94.13
2019-05-15T02:25:43.491Z,93.84
2019-05-15T02:26:43.334Z,94.03
2019-05-15T02:27:43.282Z,93.46
2019-05-15T02:28:43.204Z,93.27
2019-05-15T02:29:43.076Z,93.65
2019-05-15T02:30:42.988Z,93.27
2019-05-15T02:31:42.929Z,92.94
2019-05-15T02:32:42.817Z,92.94
2019-05-15T02:33:42.870Z,92.94
2019-05-15T02:34:42.653Z,93.13
2019-05-15T02:35:42.641Z,92.27
2019-05-15T02:36:42.482Z,92.56
2019-05-15T02:37:42.450Z,91.71
2019-05-15T02:38:42.325Z,91.52
2019-05-15T02:39:58.932Z,91.80
2019-05-15T02:40:42.138Z,91.33
2019-05-15T02:41:42.066Z,91.23
2019-05-15T02:42:41.969Z,90.56
2019-05-15T02:43:42.010Z,90.75
2019-05-15T02:44:41.804Z,90.75
2019-05-15T02:45:42.551Z,91.52
2019-05-15T02:46:41.697Z,90.75
2019-05-15T02:47:41.549Z,91.42
2019-05-15T02:48:41.480Z,90.66
2019-05-15T02:49:41.410Z,90.66
2019-05-15T02:50:41.297Z,90.75
2019-05-15T02:51:41.326Z,91.61
2019-05-15T02:52:45.121Z,91.33
2019-05-15T02:53:41.163Z,91.13
2019-05-15T02:54:40.986Z,91.52
2019-05-15T02:55:40.870Z,91.13
2019-05-15T02:56:40.843Z,91.04
2019-05-15T02:57:40.699Z,91.52
2019-05-15T02:58:40.632Z,91.13
2019-05-15T02:59:40.555Z,91.61
2019-05-15T03:00:47.341Z,91.99
2019-05-15T03:01:40.779Z,92.37
2019-05-15T03:02:41.437Z,93.08
2019-05-15T03:03:40.305Z,92.90
2019-05-15T03:04:40.348Z,94.23
2019-05-15T03:05:40.972Z,93.84
2019-05-15T03:06:39.993Z,94.13
2019-05-15T03:07:40.685Z,94.79
2019-05-15T03:08:40.305Z,95.46
2019-05-15T03:09:40.046Z,95.17
2019-05-15T03:10:40.803Z,96.03
2019-05-15T03:11:40.820Z,96.12
2019-05-15T03:12:40.596Z,96.08
2019-05-15T03:13:39.618Z,96.45
2019-05-15T03:14:40.059Z,96.36
2019-05-15T03:15:40.260Z,96.74
2019-05-15T03:16:39.551Z,97.31
2019-05-15T03:17:40.326Z,97.41
2019-05-15T03:18:39.662Z,98.07
2019-05-15T03:19:39.469Z,97.88
2019-05-15T03:20:39.156Z,97.78
2019-05-15T03:21:39.684Z,98.35
2019-05-15T03:22:40.100Z,98.83
2019-05-15T03:23:40.337Z,98.83
2019-05-15T03:24:39.597Z,98.64
2019-05-15T03:25:40.234Z,98.54
2019-05-15T03:26:39.456Z,98.87
2019-05-15T03:27:39.589Z,99.06
2019-05-15T03:28:39.318Z,98.68
2019-05-15T03:29:40.373Z,99.54
2019-05-15T03:31:06.504Z,99.54
2019-05-15T03:31:53.333Z,98.49
2019-05-15T03:32:50.758Z,98.49
2019-05-15T03:33:44.897Z,99.44
2019-05-15T03:34:46.192Z,99.16
2019-05-15T03:35:43.178Z,99.16
2019-05-15T03:36:37.374Z,99.35
2019-05-15T03:37:39.820Z,99.35
2019-05-15T03:38:39.322Z,98.68
2019-05-15T03:39:39.239Z,98.68
2019-05-15T03:40:39.746Z,99.54
2019-05-15T03:41:39.318Z,99.54
2019-05-15T03:42:39.486Z,98.68
2019-05-15T03:43:39.333Z,98.49
2019-05-15T03:44:39.241Z,99.35
2019-05-15T03:45:39.981Z,99.63
2019-05-15T03:46:39.611Z,99.44
2019-05-15T03:47:39.721Z,99.06
2019-05-15T03:48:39.781Z,99.63
2019-05-15T03:49:39.447Z,99.91
2019-05-15T03:50:39.670Z,99.63
2019-05-15T03:51:39.919Z,99.82
2019-05-15T03:52:39.062Z,99.99
2019-05-15T03:53:39.545Z,99.54
2019-05-15T03:54:38.954Z,99.54
2019-05-15T03:55:35.835Z,99.54
2019-05-15T03:56:39.034Z,99.82
2019-05-15T03:57:35.580Z,99.99
2019-05-15T03:58:35.577Z,99.99
2019-05-15T03:59:35.410Z,98.87
2019-05-15T04:00:35.325Z,98.87
2019-05-15T04:01:42.348Z,98.54
2019-05-15T04:02:35.156Z,97.69
2019-05-15T04:03:35.081Z,96.74
2019-05-15T04:04:34.980Z,96.45
2019-05-15T04:05:34.970Z,96.55
2019-05-15T04:06:34.816Z,95.98
2019-05-15T04:07:43.796Z,95.89
2019-05-15T04:08:34.653Z,95.70
2019-05-15T04:09:34.593Z,95.22
2019-05-15T04:10:34.480Z,94.74
2019-05-15T04:11:34.395Z,95.12
2019-05-15T04:12:34.303Z,95.03
2019-05-15T04:13:35.264Z,94.93
2019-05-15T04:14:34.130Z,95.03
2019-05-15T04:15:34.049Z,95.12
2019-05-15T04:16:33.963Z,94.84
2019-05-15T04:17:33.927Z,94.89
2019-05-15T04:18:33.786Z,94.70
2019-05-15T04:19:39.199Z,94.79
2019-05-15T04:20:33.628Z,94.56
2019-05-15T04:21:33.648Z,95.22
2019-05-15T04:22:33.448Z,94.84
2019-05-15T04:23:33.461Z,94.89
2019-05-15T04:24:33.306Z,94.74
2019-05-15T04:25:35.208Z,94.56
2019-05-15T04:26:33.101Z,94.74
2019-05-15T04:27:33.025Z,94.89
2019-05-15T04:28:32.931Z,94.60
2019-05-15T04:29:32.918Z,94.60
2019-05-15T04:30:32.759Z,94.51
2019-05-15T04:31:50.648Z,94.32
2019-05-15T04:32:32.590Z,94.70
2019-05-15T04:33:32.617Z,93.94
2019-05-15T04:34:32.437Z,94.03
2019-05-15T04:35:32.332Z,94.23
2019-05-15T04:36:32.331Z,93.27
2019-05-15T04:37:32.172Z,93.27
2019-05-15T04:38:32.083Z,93.56
2019-05-15T04:39:32.079Z,93.51
2019-05-15T04:40:31.914Z,93.23
2019-05-15T04:41:31.826Z,93.04
2019-05-15T04:42:31.752Z,92.37
2019-05-15T04:43:39.755Z,92.46
2019-05-15T04:44:31.590Z,92.37
2019-05-15T04:45:34.894Z,92.46
2019-05-15T04:46:31.412Z,91.89
2019-05-15T04:47:31.370Z,91.42
2019-05-15T04:48:31.245Z,91.33
2019-05-15T04:49:31.212Z,91.89
2019-05-15T04:50:31.079Z,92.18
2019-05-15T04:51:30.984Z,92.18
2019-05-15T04:52:30.997Z,91.99
2019-05-15T04:53:33.270Z,91.33
2019-05-15T04:54:30.747Z,91.42
2019-05-15T04:55:30.707Z,91.33
2019-05-15T04:56:30.566Z,91.61
2019-05-15T04:57:34.121Z,91.52
2019-05-15T04:58:30.396Z,91.80
2019-05-15T04:59:30.526Z,91.13
2019-05-15T05:00:30.236Z,91.23
2019-05-15T05:01:30.158Z,91.71
2019-05-15T05:02:32.170Z,90.89
2019-05-15T05:03:33.754Z,90.52
2019-05-15T05:04:29.904Z,90.14
2019-05-15T05:05:29.956Z,89.85
2019-05-15T05:06:29.722Z,89.94
2019-05-15T05:07:29.739Z,89.28
2019-05-15T05:08:29.560Z,89.28
2019-05-15T05:09:29.608Z,89.32
2019-05-15T05:10:29.387Z,88.94
2019-05-15T05:11:29.375Z,88.85
2019-05-15T05:12:31.235Z,88.09
2019-05-15T05:13:29.142Z,88.23
2019-05-15T05:14:29.058Z,88.23
2019-05-15T05:15:29.336Z,87.08
2019-05-15T05:16:29.517Z,86.70
2019-05-15T05:17:29.023Z,86.61
2019-05-15T05:18:29.851Z,86.13
2019-05-15T05:19:28.745Z,86.13
2019-05-15T05:20:28.866Z,86.51
2019-05-15T05:21:28.531Z,85.28
2019-05-15T05:22:28.392Z,85.66
2019-05-15T05:23:28.493Z,85.47
2019-05-15T05:24:28.232Z,85.85
2019-05-15T05:25:28.289Z,85.75
2019-05-15T05:26:29.358Z,85.56
2019-05-15T05:27:28.861Z,84.33
2019-05-15T05:28:28.898Z,84.42
2019-05-15T05:29:28.106Z,84.42
2019-05-15T05:30:29.293Z,84.27
2019-05-15T05:31:33.173Z,83.89
2019-05-15T05:32:34.633Z,84.08
2019-05-15T05:33:28.673Z,83.80
2019-05-15T05:34:28.349Z,83.70
2019-05-15T05:35:27.919Z,84.27
2019-05-15T05:36:27.928Z,83.32
2019-05-15T05:37:27.978Z,82.93
2019-05-15T05:38:28.191Z,83.26
2019-05-15T05:39:29.250Z,82.98
2019-05-15T05:40:29.137Z,82.60
2019-05-15T05:41:28.086Z,83.45
2019-05-15T05:42:29.017Z,82.41
2019-05-15T05:43:26.673Z,82.50
2019-05-15T05:44:28.944Z,81.74
2019-05-15T05:45:28.716Z,81.36
2019-05-15T05:46:28.047Z,81.12
2019-05-15T05:47:28.723Z,81.88
2019-05-15T05:48:26.278Z,80.64
2019-05-15T05:49:26.185Z,80.26
2019-05-15T05:50:28.713Z,79.02
2019-05-15T05:51:28.080Z,79.21
2019-05-15T05:52:27.938Z,78.44
2019-05-15T05:53:25.872Z,78.64
2019-05-15T05:54:25.786Z,78.06
2019-05-15T05:55:25.722Z,78.58
2019-05-15T05:56:25.625Z,78.10
2019-05-15T05:57:27.839Z,76.96
2019-05-15T05:58:25.463Z,76.10
2019-05-15T05:59:25.384Z,76.20
2019-05-15T06:00:25.320Z,75.53
2019-05-15T06:01:25.271Z,76.01
2019-05-15T06:02:25.141Z,75.34
2019-05-15T06:03:25.062Z,74.61
2019-05-15T06:04:24.980Z,74.13
2019-05-15T06:05:24.912Z,74.13
2019-05-15T06:06:24.828Z,73.18
2019-05-15T06:07:24.735Z,73.85
2019-05-15T06:08:24.654Z,74.13
2019-05-15T06:09:24.598Z,73.66
2019-05-15T06:10:24.512Z,74.71
2019-05-15T06:11:24.416Z,73.69
2019-05-15T06:12:24.354Z,73.16
2019-05-15T06:13:24.255Z,72.11
2019-05-15T06:14:24.183Z,71.53
2019-05-15T06:15:24.115Z,70.67
2019-05-15T06:16:24.030Z,71.53
2019-05-15T06:17:23.955Z,70.71
2019-05-15T06:18:23.871Z,68.96
2019-05-15T06:19:23.790Z,69.82
2019-05-15T06:20:23.701Z,68.10
2019-05-15T06:21:23.640Z,67.71
2019-05-15T06:22:23.543Z,66.47
2019-05-15T06:23:25.921Z,66.56
2019-05-15T06:24:23.377Z,67.94
2019-05-15T06:25:23.305Z,66.99
2019-05-15T06:26:23.237Z,66.31
2019-05-15T06:27:23.140Z,65.07
2019-05-15T06:28:23.063Z,64.40
2019-05-15T06:29:22.981Z,64.78
2019-05-15T06:30:27.431Z,63.03
2019-05-15T06:31:22.845Z,63.23
2019-05-15T06:32:22.743Z,63.03
2019-05-15T06:33:22.664Z,62.55
2019-05-15T06:34:22.588Z,65.07
2019-05-15T06:35:22.507Z,63.51
2019-05-15T06:36:22.457Z,62.84
2019-05-15T06:37:22.350Z,62.18
2019-05-15T06:38:22.276Z,62.65
2019-05-15T06:39:22.195Z,62.18
2019-05-15T06:40:22.105Z,62.75
2019-05-15T06:41:22.039Z,62.94
2019-05-15T06:42:21.952Z,62.65
2019-05-15T06:43:21.868Z,61.89
2019-05-15T06:44:21.788Z,62.08
2019-05-15T06:45:21.708Z,62.21
2019-05-15T06:46:21.656Z,61.92
2019-05-15T06:47:21.547Z,61.72
2019-05-15T06:48:21.473Z,60.93
2019-05-15T06:49:21.391Z,61.03
2019-05-15T06:50:21.312Z,60.74
2019-05-15T06:51:21.266Z,61.51
2019-05-15T06:52:21.158Z,61.98
2019-05-15T06:53:21.079Z,61.92
2019-05-15T06:54:21.000Z,61.09
2019-05-15T06:55:20.918Z,60.13
2019-05-15T06:56:20.847Z,58.10
2019-05-15T06:57:20.761Z,58.07
2019-05-15T06:58:20.682Z,59.53
2019-05-15T06:59:20.601Z,59.05
2019-05-15T07:00:20.520Z,58.95
2019-05-15T07:01:20.756Z,59.15
2019-05-15T07:02:20.359Z,58.51
2019-05-15T07:03:25.517Z,57.36
2019-05-15T07:04:20.204Z,55.42
2019-05-15T07:05:20.145Z,55.52
2019-05-15T07:06:20.059Z,56.18
2019-05-15T07:07:19.976Z,56.40
2019-05-15T07:08:19.907Z,55.71
2019-05-15T07:09:19.814Z,54.75
2019-05-15T07:10:19.756Z,54.08
2019-05-15T07:11:19.671Z,54.85
2019-05-15T07:12:19.574Z,55.64
2019-05-15T07:13:19.516Z,53.89
2019-05-15T07:14:19.421Z,55.52
2019-05-15T07:15:19.342Z,55.42
2019-05-15T07:16:19.269Z,54.82
2019-05-15T07:17:19.181Z,55.13
2019-05-15T07:18:19.888Z,55.23
2019-05-15T07:19:19.265Z,54.78
2019-05-15T07:20:18.936Z,54.08
2019-05-15T07:21:20.543Z,54.59
2019-05-15T07:22:18.781Z,54.30
2019-05-15T07:23:19.070Z,52.77
2019-05-15T07:24:18.639Z,52.65
2019-05-15T07:25:18.973Z,53.61
2019-05-15T07:26:18.482Z,53.41
2019-05-15T07:27:18.554Z,53.70
2019-05-15T07:28:18.505Z,53.92
2019-05-15T07:29:18.949Z,52.48
2019-05-15T07:30:18.744Z,52.10
2019-05-15T07:31:18.203Z,52.08
2019-05-15T07:32:19.265Z,52.75
2019-05-15T07:33:27.957Z,52.67
2019-05-15T07:34:18.783Z,52.58
2019-05-15T07:35:19.180Z,52.80
2019-05-15T07:36:19.225Z,51.84
2019-05-15T07:37:19.113Z,51.27
2019-05-15T07:38:18.275Z,50.38
2019-05-15T07:39:17.985Z,51.75
2019-05-15T07:40:19.414Z,50.29
2019-05-15T07:41:18.445Z,50.31
2019-05-15T07:42:18.451Z,49.16
2019-05-15T07:43:18.217Z,48.97
2019-05-15T07:44:18.897Z,49.14
2019-05-15T07:45:19.756Z,48.66
2019-05-15T07:46:18.444Z,49.52
2019-05-15T07:47:19.079Z,49.45
2019-05-15T07:48:18.733Z,48.88
2019-05-15T07:49:18.188Z,48.95
2019-05-15T07:50:16.599Z,50.41
2019-05-15T07:51:18.022Z,50.43
2019-05-15T07:52:19.179Z,49.48
2019-05-15T07:53:16.365Z,49.50
2019-05-15T07:54:18.210Z,48.21
2019-05-15T07:55:18.332Z,48.78
2019-05-15T07:56:18.053Z,49.55
2019-05-15T07:57:19.053Z,50.21
2019-05-15T07:58:15.980Z,49.84
2019-05-15T07:59:15.897Z,49.66
2019-05-15T08:00:18.546Z,49.38
2019-05-15T08:01:18.363Z,49.00
2019-05-15T08:02:15.679Z,49.45
2019-05-15T08:03:15.589Z,51.36
2019-05-15T08:04:26.201Z,52.44
2019-05-15T08:05:18.074Z,52.15
2019-05-15T08:06:17.843Z,51.29
2019-05-15T08:07:15.309Z,50.15
2019-05-15T08:08:15.209Z,50.46
2019-05-15T08:09:15.132Z,50.48
2019-05-15T08:10:15.066Z,50.20
2019-05-15T08:11:20.910Z,49.65
2019-05-15T08:12:14.918Z,48.83
2019-05-15T08:13:14.841Z,49.24
2019-05-15T08:14:14.753Z,47.39
2019-05-15T08:15:14.673Z,44.95
2019-05-15T08:16:14.617Z,45.15
2019-05-15T08:17:18.179Z,43.90
2019-05-15T08:18:14.462Z,44.31
2019-05-15T08:19:14.371Z,44.62
2019-05-15T08:20:14.314Z,45.29
2019-05-15T08:21:14.221Z,44.64
2019-05-15T08:22:15.212Z,43.77
2019-05-15T08:23:14.076Z,44.06
2019-05-15T08:24:13.999Z,44.04
2019-05-15T08:25:28.254Z,44.62
2019-05-15T08:26:13.860Z,43.66
2019-05-15T08:27:13.788Z,44.21
2019-05-15T08:28:13.697Z,44.12
2019-05-15T08:29:13.620Z,43.63
2019-05-15T08:30:13.548Z,44.59
2019-05-15T08:31:13.490Z,44.40
2019-05-15T08:32:13.407Z,44.50
2019-05-15T08:33:13.339Z,45.17
2019-05-15T08:34:16.296Z,44.98
2019-05-15T08:35:13.167Z,45.29
2019-05-15T08:36:13.096Z,45.29
2019-05-15T08:37:13.029Z,44.50
2019-05-15T08:38:14.297Z,44.13
2019-05-15T08:39:12.868Z,45.21
2019-05-15T08:40:12.788Z,46.10
2019-05-15T08:41:15.518Z,43.68
2019-05-15T08:42:12.673Z,42.99
2019-05-15T08:43:12.562Z,42.41
2019-05-15T08:44:12.503Z,42.22
2019-05-15T08:45:12.415Z,41.65
2019-05-15T08:46:12.349Z,43.30
2019-05-15T08:47:12.268Z,42.41
2019-05-15T08:48:12.231Z,42.32
2019-05-15T08:49:12.116Z,42.34
2019-05-15T08:50:12.059Z,41.67
2019-05-15T08:51:11.960Z,42.14
2019-05-15T08:52:11.896Z,42.80
2019-05-15T08:53:11.835Z,45.40
2019-05-15T08:54:11.740Z,45.02
2019-05-15T08:55:11.663Z,42.34
2019-05-15T08:56:14.703Z,42.24
2019-05-15T08:57:11.520Z,41.94
2019-05-15T08:58:14.051Z,44.35
2019-05-15T08:59:11.379Z,44.18
2019-05-15T09:00:11.298Z,43.23
2019-05-15T09:01:11.235Z,43.99
2019-05-15T09:02:11.153Z,43.82
2019-05-15T09:03:11.087Z,43.91
2019-05-15T09:04:26.116Z,43.94
2019-05-15T09:05:10.929Z,42.38
2019-05-15T09:06:10.853Z,41.88
2019-05-15T09:07:10.867Z,42.94
2019-05-15T09:08:10.723Z,42.29
2019-05-15T09:09:10.637Z,40.90
2019-05-15T09:10:10.560Z,42.17
2019-05-15T09:11:10.497Z,42.14
2019-05-15T09:12:10.408Z,42.27
2019-05-15T09:13:10.363Z,42.65
2019-05-15T09:14:10.313Z,45.26
2019-05-15T09:15:10.195Z,43.23
2019-05-15T09:16:10.122Z,42.44
2019-05-15T09:17:10.051Z,42.41
2019-05-15T09:18:15.945Z,42.13
2019-05-15T09:19:09.915Z,42.80
2019-05-15T09:20:09.825Z,43.20
2019-05-15T09:21:09.752Z,44.26
2019-05-15T09:22:09.683Z,42.24
2019-05-15T09:23:09.617Z,42.94
2019-05-15T09:24:09.714Z,42.65
2019-05-15T09:25:09.474Z,42.55
2019-05-15T09:26:09.489Z,44.80
2019-05-15T09:27:10.264Z,42.88
2019-05-15T09:28:09.264Z,42.21
2019-05-15T09:29:09.447Z,42.81
2019-05-15T09:30:09.097Z,41.63
2019-05-15T09:31:09.014Z,40.67
2019-05-15T09:32:12.430Z,41.25
2019-05-15T09:33:08.928Z,39.87
2019-05-15T09:34:09.229Z,39.77
2019-05-15T09:35:08.733Z,41.42
2019-05-15T09:36:09.155Z,42.11
2019-05-15T09:37:08.696Z,41.63
2019-05-15T09:38:08.736Z,40.37
2019-05-15T09:39:08.769Z,41.33
2019-05-15T09:40:09.065Z,42.40
2019-05-15T09:41:08.982Z,43.36
2019-05-15T09:42:08.524Z,43.84
2019-05-15T09:43:10.797Z,44.03
2019-05-15T09:44:08.126Z,42.88
2019-05-15T09:45:08.925Z,43.00
2019-05-15T09:46:10.283Z,43.10
2019-05-15T09:47:09.121Z,41.46
2019-05-15T09:48:09.766Z,40.79
2019-05-15T09:49:08.838Z,39.89
2019-05-15T09:50:08.507Z,41.35
2019-05-15T09:51:09.271Z,41.71
2019-05-15T09:52:09.011Z,42.30
2019-05-15T09:53:09.304Z,42.60
2019-05-15T09:54:08.070Z,40.94
2019-05-15T09:55:08.612Z,41.11
2019-05-15T09:56:08.135Z,42.84
2019-05-15T09:57:10.592Z,42.55
2019-05-15T09:58:08.291Z,42.74
2019-05-15T09:59:08.900Z,43.13
2019-05-15T10:00:09.009Z,45.07
2019-05-15T10:01:08.426Z,43.73
2019-05-15T10:02:09.087Z,43.94
2019-05-15T10:03:09.344Z,43.63
2019-05-15T10:04:08.359Z,44.20
2019-05-15T10:05:10.983Z,44.68
2019-05-15T10:06:08.135Z,44.51
2019-05-15T10:07:08.199Z,45.57
2019-05-15T10:08:08.514Z,45.47
2019-05-15T10:09:08.841Z,45.68
2019-05-15T10:10:08.511Z,44.23
2019-05-15T10:11:08.850Z,43.84
2019-05-15T10:12:08.351Z,43.91
2019-05-15T10:13:06.000Z,44.20
2019-05-15T10:14:05.922Z,45.16
2019-05-15T10:15:10.485Z,44.68
2019-05-15T10:16:08.222Z,45.16
2019-05-15T10:17:05.705Z,44.51
2019-05-15T10:18:05.653Z,45.47
2019-05-15T10:19:05.564Z,44.32
2019-05-15T10:20:05.500Z,44.51
2019-05-15T10:21:05.416Z,44.97
2019-05-15T10:22:05.365Z,44.78
2019-05-15T10:23:05.275Z,44.37
2019-05-15T10:24:05.204Z,44.18
2019-05-15T10:25:05.141Z,45.23
2019-05-15T10:26:05.071Z,45.23
2019-05-15T10:27:04.981Z,44.66
2019-05-15T10:28:04.898Z,44.56
2019-05-15T10:29:04.846Z,45.36
2019-05-15T10:30:04.765Z,45.52
2019-05-15T10:31:04.686Z,45.52
2019-05-15T10:32:04.608Z,45.23
2019-05-15T10:33:04.644Z,45.33
2019-05-15T10:34:04.479Z,46.58
2019-05-15T10:35:04.397Z,46.41
2019-05-15T10:36:04.318Z,45.36
2019-05-15T10:37:04.255Z,44.30
2019-05-15T10:38:04.178Z,45.76
2019-05-15T10:39:04.165Z,44.11
2019-05-15T10:40:04.032Z,44.59
2019-05-15T10:41:09.801Z,45.18
2019-05-15T10:42:04.207Z,44.51
2019-05-15T10:43:03.817Z,44.51
2019-05-15T10:44:03.761Z,45.57
2019-05-15T10:45:03.667Z,45.07
2019-05-15T10:46:03.598Z,44.66
2019-05-15T10:47:03.547Z,44.56
2019-05-15T10:48:03.469Z,44.78
2019-05-15T10:49:03.410Z,44.47
2019-05-15T10:50:03.308Z,45.04
2019-05-15T10:51:07.252Z,45.52
2019-05-15T10:52:03.178Z,46.50
2019-05-15T10:53:03.098Z,46.43
2019-05-15T10:54:03.031Z,46.72
2019-05-15T10:55:02.949Z,45.95
2019-05-15T10:56:02.912Z,45.64
2019-05-15T10:57:05.236Z,46.22
2019-05-15T10:58:02.728Z,45.93
2019-05-15T10:59:02.672Z,46.91
2019-05-15T11:00:02.582Z,46.43
2019-05-15T11:01:03.406Z,47.68
2019-05-15T11:02:02.437Z,46.43
2019-05-15T11:03:02.368Z,46.05
2019-05-15T11:04:02.309Z,47.30
2019-05-15T11:05:02.235Z,45.90
2019-05-15T11:06:02.143Z,46.79
2019-05-15T11:07:02.084Z,46.41
2019-05-15T11:08:01.998Z,47.27
2019-05-15T11:09:01.945Z,46.22
2019-05-15T11:10:01.860Z,46.12
2019-05-15T11:11:01.780Z,46.81
2019-05-15T11:12:01.715Z,44.97
2019-05-15T11:13:01.648Z,44.97
2019-05-15T11:14:01.578Z,45.64
2019-05-15T11:15:01.501Z,46.22
2019-05-15T11:16:01.432Z,46.43
2019-05-15T11:17:01.353Z,47.10
2019-05-15T11:18:01.281Z,47.89
2019-05-15T11:19:01.240Z,45.40
2019-05-15T11:20:01.129Z,44.82
2019-05-15T11:21:01.068Z,44.73
2019-05-15T11:22:00.987Z,43.57
2019-05-15T11:23:00.911Z,44.13
2019-05-15T11:24:00.856Z,44.80
2019-05-15T11:25:00.771Z,45.88
2019-05-15T11:26:00.694Z,44.75
2019-05-15T11:27:00.702Z,45.04
2019-05-15T11:28:00.558Z,46.09
2019-05-15T11:29:00.498Z,46.00
2019-05-15T11:30:00.414Z,45.61
2019-05-15T11:31:00.348Z,44.54
2019-05-15T11:32:00.269Z,46.45
2019-05-15T11:33:00.191Z,45.30
2019-05-15T11:34:00.139Z,44.80
2019-05-15T11:35:03.630Z,45.18
2019-05-15T11:36:05.581Z,46.14
2019-05-15T11:36:59.908Z,44.23
2019-05-15T11:37:59.842Z,43.94
2019-05-15T11:38:59.784Z,44.59
2019-05-15T11:39:59.697Z,45.45
2019-05-15T11:40:59.616Z,46.24
2019-05-15T11:41:59.554Z,45.86
2019-05-15T11:42:59.478Z,45.95
2019-05-15T11:43:59.421Z,45.98
2019-05-15T11:44:59.334Z,46.74
2019-05-15T11:45:59.273Z,46.48
2019-05-15T11:46:59.195Z,45.01
2019-05-15T11:48:00.982Z,45.30
2019-05-15T11:48:59.178Z,45.40
2019-05-15T11:49:58.990Z,45.52
2019-05-15T11:50:58.897Z,44.75
2019-05-15T11:52:00.646Z,43.79
2019-05-15T11:52:58.760Z,43.31
2019-05-15T11:53:58.907Z,43.29
2019-05-15T11:54:59.002Z,44.06
2019-05-15T11:55:59.858Z,44.63
2019-05-15T11:56:59.633Z,44.23
2019-05-15T11:57:59.432Z,44.13
2019-05-15T11:58:58.322Z,44.42
2019-05-15T11:59:59.580Z,45.45
2019-05-15T12:00:58.186Z,45.47
2019-05-15T12:01:58.156Z,45.57
2019-05-15T12:02:58.558Z,44.03
2019-05-15T12:03:58.545Z,43.46
2019-05-15T12:04:58.405Z,44.23
2019-05-15T12:05:59.660Z,44.80
2019-05-15T12:07:02.141Z,44.32
2019-05-15T12:07:57.949Z,44.32
2019-05-15T12:08:59.147Z,43.27
2019-05-15T12:09:58.106Z,42.52
2019-05-15T12:10:59.165Z,42.43
2019-05-15T12:11:57.395Z,41.37
2019-05-15T12:12:57.325Z,40.70
2019-05-15T12:13:57.279Z,40.39
2019-05-15T12:14:57.185Z,41.35
2019-05-15T12:15:58.931Z,42.30
2019-05-15T12:17:07.216Z,43.31
2019-05-15T12:17:59.016Z,43.02
2019-05-15T12:19:08.423Z,42.23
2019-05-15T12:20:04.630Z,42.33
2019-05-15T12:20:58.828Z,44.65
2019-05-15T12:21:59.621Z,43.50
2019-05-15T12:22:59.253Z,44.48
2019-05-15T12:23:58.955Z,43.93
2019-05-15T12:25:00.143Z,43.07
2019-05-15T12:25:59.316Z,43.23
2019-05-15T12:26:58.102Z,43.07
2019-05-15T12:27:56.243Z,42.66
2019-05-15T12:28:59.032Z,41.77
2019-05-15T12:29:56.112Z,40.81
2019-05-15T12:30:59.331Z,40.89
2019-05-15T12:31:58.797Z,41.10
2019-05-15T12:32:55.880Z,39.93
2019-05-15T12:33:58.147Z,41.00
2019-05-15T12:34:59.758Z,41.22
2019-05-15T12:35:55.663Z,40.83
2019-05-15T12:36:57.973Z,40.55
2019-05-15T12:37:55.524Z,40.55
2019-05-15T12:38:55.445Z,39.97
2019-05-15T12:59:53.989Z,41.16
2019-05-15T13:00:53.874Z,41.26
2019-05-15T13:01:53.796Z,40.11
2019-05-15T13:02:53.738Z,39.99
2019-05-15T13:03:53.646Z,40.18
2019-05-15T13:04:53.591Z,40.06
2019-05-15T13:05:53.512Z,39.66
2019-05-15T13:07:11.650Z,40.62
2019-05-15T13:07:53.366Z,40.72
2019-05-15T13:08:53.301Z,41.39
2019-05-15T13:09:53.229Z,41.96
2019-05-15T13:10:53.162Z,41.39
2019-05-15T13:11:53.071Z,41.50